Terminal Aerodrome Forecast
Issued by NWS

Home | Current Version | Previous Version | Text Only | Print | Product List | Glossary On
Versions: 1 2 3 4 5 6 7 8 9 10 11 12 13 14 15 16 17
000
FTUS44 KSJT 190200 AAA
TAFBBD
TAF AMD
KBBD 190252Z 1903/1924 11005KT P6SM BKN007
     FM190500 11008KT P6SM BKN050
      TEMPO 1911/1915 BKN018
     FM191500 17010KT P6SM SCT070=

USA.gov is the U.S. government's official web portal to all federal, state and local government web resources and services.